sensor_id;sensor_type;location;lat;lon;timestamp;temperature;humidity
52016;DHT22;38032;53.326;6.472;2023-05-08T00:00:25;11.70;99.90
52016;DHT22;38032;53.326;6.472;2023-05-08T00:02:50;11.70;99.90
52016;DHT22;38032;53.326;6.472;2023-05-08T00:05:16;11.60;99.90
52016;DHT22;38032;53.326;6.472;2023-05-08T00:07:42;11.60;99.90
52016;DHT22;38032;53.326;6.472;2023-05-08T00:10:10;11.60;99.90
52016;DHT22;38032;53.326;6.472;2023-05-08T00:12:36;11.60;99.90
52016;DHT22;38032;53.326;6.472;2023-05-08T00:15:03;11.50;99.90
52016;DHT22;38032;53.326;6.472;2023-05-08T00:17:29;11.60;99.90
52016;DHT22;38032;53.326;6.472;2023-05-08T00:19:55;11.50;99.90
52016;DHT22;38032;53.326;6.472;2023-05-08T00:22:21;11.50;99.90
52016;DHT22;38032;53.326;6.472;2023-05-08T00:24:47;11.50;99.90
52016;DHT22;38032;53.326;6.472;2023-05-08T00:27:13;11.40;99.90
52016;DHT22;38032;53.326;6.472;2023-05-08T00:29:39;11.40;99.90
52016;DHT22;38032;53.326;6.472;2023-05-08T00:32:06;11.30;99.90
52016;DHT22;38032;53.326;6.472;2023-05-08T00:34:32;11.30;99.90
52016;DHT22;38032;53.326;6.472;2023-05-08T00:36:58;11.20;99.90
52016;DHT22;38032;53.326;6.472;2023-05-08T00:39:24;11.20;99.90
52016;DHT22;38032;53.326;6.472;2023-05-08T00:41:50;11.10;99.90
52016;DHT22;38032;53.326;6.472;2023-05-08T00:44:16;11.10;99.90
52016;DHT22;38032;53.326;6.472;2023-05-08T00:46:42;11.10;99.90
52016;DHT22;38032;53.326;6.472;2023-05-08T00:49:09;11.00;99.90
52016;DHT22;38032;53.326;6.472;2023-05-08T00:51:39;11.00;99.90
52016;DHT22;38032;53.326;6.472;2023-05-08T00:54:06;11.00;99.90
52016;DHT22;38032;53.326;6.472;2023-05-08T00:56:33;11.00;99.90
52016;DHT22;38032;53.326;6.472;2023-05-08T00:59:00;11.00;99.90
52016;DHT22;38032;53.326;6.472;2023-05-08T01:01:27;11.00;99.90
52016;DHT22;38032;53.326;6.472;2023-05-08T01:03:53;10.90;99.90
52016;DHT22;38032;53.326;6.472;2023-05-08T01:06:19;10.90;99.90
52016;DHT22;38032;53.326;6.472;2023-05-08T01:08:45;10.80;99.90
52016;DHT22;38032;53.326;6.472;2023-05-08T01:11:25;10.80;99.90
52016;DHT22;38032;53.326;6.472;2023-05-08T01:14:18;10.70;99.90
52016;DHT22;38032;53.326;6.472;2023-05-08T01:17:10;10.60;99.90
52016;DHT22;38032;53.326;6.472;2023-05-08T01:20:08;10.60;99.90
52016;DHT22;38032;53.326;6.472;2023-05-08T01:28:21;10.60;99.90
52016;DHT22;38032;53.326;6.472;2023-05-08T01:31:04;10.50;99.90
52016;DHT22;38032;53.326;6.472;2023-05-08T01:33:57;10.50;99.90
52016;DHT22;38032;53.326;6.472;2023-05-08T01:39:00;10.50;99.90
52016;DHT22;38032;53.326;6.472;2023-05-08T01:41:29;10.40;99.90
52016;DHT22;38032;53.326;6.472;2023-05-08T01:44:01;10.50;99.90
52016;DHT22;38032;53.326;6.472;2023-05-08T01:46:31;10.40;99.90
52016;DHT22;38032;53.326;6.472;2023-05-08T01:51:53;10.30;99.90
52016;DHT22;38032;53.326;6.472;2023-05-08T01:54:26;10.20;99.90
52016;DHT22;38032;53.326;6.472;2023-05-08T01:56:55;10.30;99.90
52016;DHT22;38032;53.326;6.472;2023-05-08T01:59:23;10.20;99.90
52016;DHT22;38032;53.326;6.472;2023-05-08T02:01:52;10.20;99.90
52016;DHT22;38032;53.326;6.472;2023-05-08T02:04:19;10.20;99.90
52016;DHT22;38032;53.326;6.472;2023-05-08T02:06:45;10.20;99.90
52016;DHT22;38032;53.326;6.472;2023-05-08T02:09:11;10.20;99.90
52016;DHT22;38032;53.326;6.472;2023-05-08T02:11:40;10.10;99.90
52016;DHT22;38032;53.326;6.472;2023-05-08T02:14:07;10.10;99.90
52016;DHT22;38032;53.326;6.472;2023-05-08T02:16:35;10.10;99.90
52016;DHT22;38032;53.326;6.472;2023-05-08T02:19:03;10.10;99.90
52016;DHT22;38032;53.326;6.472;2023-05-08T02:21:30;10.10;99.90
52016;DHT22;38032;53.326;6.472;2023-05-08T02:23:57;10.00;99.90
52016;DHT22;38032;53.326;6.472;2023-05-08T02:26:24;10.00;99.90
52016;DHT22;38032;53.326;6.472;2023-05-08T02:28:52;10.00;99.90
52016;DHT22;38032;53.326;6.472;2023-05-08T02:31:20;10.00;99.90
52016;DHT22;38032;53.326;6.472;2023-05-08T02:33:47;10.00;99.90
52016;DHT22;38032;53.326;6.472;2023-05-08T02:36:16;10.00;99.90
52016;DHT22;38032;53.326;6.472;2023-05-08T02:38:44;9.90;99.90
52016;DHT22;38032;53.326;6.472;2023-05-08T02:41:13;9.90;99.90
52016;DHT22;38032;53.326;6.472;2023-05-08T02:43:40;9.90;99.90
52016;DHT22;38032;53.326;6.472;2023-05-08T02:46:15;9.90;99.90
52016;DHT22;38032;53.326;6.472;2023-05-08T02:48:55;9.90;99.90
52016;DHT22;38032;53.326;6.472;2023-05-08T02:51:28;9.90;99.90
52016;DHT22;38032;53.326;6.472;2023-05-08T02:54:03;9.90;99.90
52016;DHT22;38032;53.326;6.472;2023-05-08T02:56:37;9.80;99.90
52016;DHT22;38032;53.326;6.472;2023-05-08T03:01:47;9.80;99.90
52016;DHT22;38032;53.326;6.472;2023-05-08T03:04:21;9.80;99.90
52016;DHT22;38032;53.326;6.472;2023-05-08T03:06:49;9.70;99.90
52016;DHT22;38032;53.326;6.472;2023-05-08T03:09:20;9.70;99.90
52016;DHT22;38032;53.326;6.472;2023-05-08T03:11:49;9.70;99.90
52016;DHT22;38032;53.326;6.472;2023-05-08T03:14:20;9.70;99.90
52016;DHT22;38032;53.326;6.472;2023-05-08T03:16:49;9.70;99.90
52016;DHT22;38032;53.326;6.472;2023-05-08T03:19:27;9.70;99.90
52016;DHT22;38032;53.326;6.472;2023-05-08T03:21:55;9.60;99.90
52016;DHT22;38032;53.326;6.472;2023-05-08T03:24:23;9.60;99.90
52016;DHT22;38032;53.326;6.472;2023-05-08T03:26:50;9.60;99.90
52016;DHT22;38032;53.326;6.472;2023-05-08T03:29:17;9.60;99.90
52016;DHT22;38032;53.326;6.472;2023-05-08T03:31:44;9.60;99.90
52016;DHT22;38032;53.326;6.472;2023-05-08T03:34:11;9.60;99.90
52016;DHT22;38032;53.326;6.472;2023-05-08T03:36:38;9.60;99.90
52016;DHT22;38032;53.326;6.472;2023-05-08T03:39:05;9.60;99.90
52016;DHT22;38032;53.326;6.472;2023-05-08T03:41:32;9.60;99.90
52016;DHT22;38032;53.326;6.472;2023-05-08T03:43:58;9.60;99.90
52016;DHT22;38032;53.326;6.472;2023-05-08T03:46:24;9.60;99.90
52016;DHT22;38032;53.326;6.472;2023-05-08T03:48:51;9.50;99.90
52016;DHT22;38032;53.326;6.472;2023-05-08T03:51:17;9.50;99.90
52016;DHT22;38032;53.326;6.472;2023-05-08T03:53:44;9.50;99.90
52016;DHT22;38032;53.326;6.472;2023-05-08T03:56:10;9.40;99.90
52016;DHT22;38032;53.326;6.472;2023-05-08T04:01:17;9.40;99.90
52016;DHT22;38032;53.326;6.472;2023-05-08T04:03:55;9.40;99.90
52016;DHT22;38032;53.326;6.472;2023-05-08T04:06:48;9.40;99.90
52016;DHT22;38032;53.326;6.472;2023-05-08T04:09:30;9.30;99.90
52016;DHT22;38032;53.326;6.472;2023-05-08T04:12:04;9.30;99.90
52016;DHT22;38032;53.326;6.472;2023-05-08T04:14:35;9.30;99.90
52016;DHT22;38032;53.326;6.472;2023-05-08T04:17:04;9.30;99.90
52016;DHT22;38032;53.326;6.472;2023-05-08T04:19:35;9.30;99.90
52016;DHT22;38032;53.326;6.472;2023-05-08T04:22:05;9.40;99.90
52016;DHT22;38032;53.326;6.472;2023-05-08T04:24:35;9.40;99.90
52016;DHT22;38032;53.326;6.472;2023-05-08T04:27:02;9.50;99.90
52016;DHT22;38032;53.326;6.472;2023-05-08T04:29:29;9.50;99.90
52016;DHT22;38032;53.326;6.472;2023-05-08T04:31:57;9.50;99.90
52016;DHT22;38032;53.326;6.472;2023-05-08T04:34:25;9.50;99.90
52016;DHT22;38032;53.326;6.472;2023-05-08T04:36:51;9.50;99.90
52016;DHT22;38032;53.326;6.472;2023-05-08T04:39:17;9.60;99.90
52016;DHT22;38032;53.326;6.472;2023-05-08T04:41:44;9.70;99.90
52016;DHT22;38032;53.326;6.472;2023-05-08T04:44:10;9.80;99.90
52016;DHT22;38032;53.326;6.472;2023-05-08T04:46:36;9.90;99.90
52016;DHT22;38032;53.326;6.472;2023-05-08T04:49:02;9.90;99.90
52016;DHT22;38032;53.326;6.472;2023-05-08T04:51:27;9.90;99.90
52016;DHT22;38032;53.326;6.472;2023-05-08T04:53:53;9.90;99.90
52016;DHT22;38032;53.326;6.472;2023-05-08T04:56:19;9.90;99.90
52016;DHT22;38032;53.326;6.472;2023-05-08T04:58:46;9.90;99.90
52016;DHT22;38032;53.326;6.472;2023-05-08T05:01:12;9.90;99.90
52016;DHT22;38032;53.326;6.472;2023-05-08T05:03:38;10.00;99.90
52016;DHT22;38032;53.326;6.472;2023-05-08T05:06:04;10.00;99.90
52016;DHT22;38032;53.326;6.472;2023-05-08T05:08:30;10.10;99.90
52016;DHT22;38032;53.326;6.472;2023-05-08T05:10:55;10.20;99.90
52016;DHT22;38032;53.326;6.472;2023-05-08T05:13:21;10.20;99.90
52016;DHT22;38032;53.326;6.472;2023-05-08T05:15:47;10.40;99.90
52016;DHT22;38032;53.326;6.472;2023-05-08T05:18:16;10.50;99.90
52016;DHT22;38032;53.326;6.472;2023-05-08T05:20:41;10.50;99.90
52016;DHT22;38032;53.326;6.472;2023-05-08T05:23:07;10.60;99.90
52016;DHT22;38032;53.326;6.472;2023-05-08T05:25:34;10.60;99.90
52016;DHT22;38032;53.326;6.472;2023-05-08T05:27:59;10.60;99.90
52016;DHT22;38032;53.326;6.472;2023-05-08T05:30:26;10.60;99.90
52016;DHT22;38032;53.326;6.472;2023-05-08T05:32:52;10.80;99.90
52016;DHT22;38032;53.326;6.472;2023-05-08T05:35:18;10.90;99.90
52016;DHT22;38032;53.326;6.472;2023-05-08T05:37:44;10.80;99.90
52016;DHT22;38032;53.326;6.472;2023-05-08T05:42:38;11.00;99.90
52016;DHT22;38032;53.326;6.472;2023-05-08T05:45:04;11.10;99.90
52016;DHT22;38032;53.326;6.472;2023-05-08T05:49:56;11.10;99.90
52016;DHT22;38032;53.326;6.472;2023-05-08T05:52:23;11.10;99.90
52016;DHT22;38032;53.326;6.472;2023-05-08T05:54:49;11.30;99.90
52016;DHT22;38032;53.326;6.472;2023-05-08T05:57:15;11.30;99.90
52016;DHT22;38032;53.326;6.472;2023-05-08T05:59:41;11.50;99.90
52016;DHT22;38032;53.326;6.472;2023-05-08T06:02:07;12.00;99.90
52016;DHT22;38032;53.326;6.472;2023-05-08T06:04:35;12.40;99.90
52016;DHT22;38032;53.326;6.472;2023-05-08T06:07:01;12.80;99.90
52016;DHT22;38032;53.326;6.472;2023-05-08T06:09:26;12.90;99.90
52016;DHT22;38032;53.326;6.472;2023-05-08T06:11:53;12.90;99.90
52016;DHT22;38032;53.326;6.472;2023-05-08T06:14:19;12.90;99.90
52016;DHT22;38032;53.326;6.472;2023-05-08T06:16:44;12.90;99.90
52016;DHT22;38032;53.326;6.472;2023-05-08T06:19:10;12.80;99.90
52016;DHT22;38032;53.326;6.472;2023-05-08T06:21:36;12.80;99.90
52016;DHT22;38032;53.326;6.472;2023-05-08T06:24:04;12.80;99.90
52016;DHT22;38032;53.326;6.472;2023-05-08T06:26:31;12.80;99.90
52016;DHT22;38032;53.326;6.472;2023-05-08T06:28:57;12.80;99.90
52016;DHT22;38032;53.326;6.472;2023-05-08T06:31:23;12.90;99.90
52016;DHT22;38032;53.326;6.472;2023-05-08T06:33:48;13.00;99.90
52016;DHT22;38032;53.326;6.472;2023-05-08T06:36:14;13.00;99.90
52016;DHT22;38032;53.326;6.472;2023-05-08T06:38:40;13.10;99.90
52016;DHT22;38032;53.326;6.472;2023-05-08T06:41:06;13.30;99.90
52016;DHT22;38032;53.326;6.472;2023-05-08T06:43:32;13.50;99.90
52016;DHT22;38032;53.326;6.472;2023-05-08T06:45:58;13.60;99.90
52016;DHT22;38032;53.326;6.472;2023-05-08T06:48:23;13.80;99.90
52016;DHT22;38032;53.326;6.472;2023-05-08T06:50:53;13.90;99.90
52016;DHT22;38032;53.326;6.472;2023-05-08T06:53:19;13.90;99.90
52016;DHT22;38032;53.326;6.472;2023-05-08T06:55:45;14.00;99.90
52016;DHT22;38032;53.326;6.472;2023-05-08T06:58:11;14.10;99.90
52016;DHT22;38032;53.326;6.472;2023-05-08T07:00:37;14.10;99.90
52016;DHT22;38032;53.326;6.472;2023-05-08T07:03:03;14.20;99.90
52016;DHT22;38032;53.326;6.472;2023-05-08T07:05:29;14.20;99.90
52016;DHT22;38032;53.326;6.472;2023-05-08T07:07:55;14.20;99.90
52016;DHT22;38032;53.326;6.472;2023-05-08T07:10:21;14.30;99.90
52016;DHT22;38032;53.326;6.472;2023-05-08T07:12:48;14.40;99.90
52016;DHT22;38032;53.326;6.472;2023-05-08T07:15:14;14.40;99.90
52016;DHT22;38032;53.326;6.472;2023-05-08T07:17:40;14.50;99.90
52016;DHT22;38032;53.326;6.472;2023-05-08T07:20:07;14.60;99.90
52016;DHT22;38032;53.326;6.472;2023-05-08T07:22:33;14.60;99.90
52016;DHT22;38032;53.326;6.472;2023-05-08T07:24:59;14.60;99.90
52016;DHT22;38032;53.326;6.472;2023-05-08T07:27:25;14.70;99.90
52016;DHT22;38032;53.326;6.472;2023-05-08T07:29:51;14.70;99.90
52016;DHT22;38032;53.326;6.472;2023-05-08T07:32:17;14.80;99.90
52016;DHT22;38032;53.326;6.472;2023-05-08T07:34:43;14.90;99.90
52016;DHT22;38032;53.326;6.472;2023-05-08T07:37:10;15.10;99.90
52016;DHT22;38032;53.326;6.472;2023-05-08T07:39:37;15.10;99.90
52016;DHT22;38032;53.326;6.472;2023-05-08T07:42:03;15.20;99.90
52016;DHT22;38032;53.326;6.472;2023-05-08T07:44:31;15.30;99.90
52016;DHT22;38032;53.326;6.472;2023-05-08T07:46:58;15.40;99.90
52016;DHT22;38032;53.326;6.472;2023-05-08T07:49:24;15.40;99.90
52016;DHT22;38032;53.326;6.472;2023-05-08T07:51:50;15.50;99.90
52016;DHT22;38032;53.326;6.472;2023-05-08T07:54:16;15.60;99.90
52016;DHT22;38032;53.326;6.472;2023-05-08T07:56:42;15.80;99.90
52016;DHT22;38032;53.326;6.472;2023-05-08T07:59:08;16.00;99.90
52016;DHT22;38032;53.326;6.472;2023-05-08T08:01:33;16.20;99.90
52016;DHT22;38032;53.326;6.472;2023-05-08T08:03:59;16.50;99.90
52016;DHT22;38032;53.326;6.472;2023-05-08T08:06:25;16.70;99.90
52016;DHT22;38032;53.326;6.472;2023-05-08T08:08:51;17.00;99.90
52016;DHT22;38032;53.326;6.472;2023-05-08T08:11:17;17.30;99.90
52016;DHT22;38032;53.326;6.472;2023-05-08T08:13:43;17.60;99.90
52016;DHT22;38032;53.326;6.472;2023-05-08T08:16:09;17.80;99.90
52016;DHT22;38032;53.326;6.472;2023-05-08T08:18:34;18.00;99.90
52016;DHT22;38032;53.326;6.472;2023-05-08T08:21:04;18.40;99.90
52016;DHT22;38032;53.326;6.472;2023-05-08T08:23:31;18.70;99.90
52016;DHT22;38032;53.326;6.472;2023-05-08T08:25:57;19.00;99.90
52016;DHT22;38032;53.326;6.472;2023-05-08T08:28:23;19.20;99.90
52016;DHT22;38032;53.326;6.472;2023-05-08T08:30:49;19.40;99.90
52016;DHT22;38032;53.326;6.472;2023-05-08T08:33:15;19.60;99.90
52016;DHT22;38032;53.326;6.472;2023-05-08T08:35:41;19.90;99.90
52016;DHT22;38032;53.326;6.472;2023-05-08T08:38:07;20.20;99.90
52016;DHT22;38032;53.326;6.472;2023-05-08T08:43:03;20.60;99.90
52016;DHT22;38032;53.326;6.472;2023-05-08T08:45:30;20.90;99.90
52016;DHT22;38032;53.326;6.472;2023-05-08T08:48:00;21.40;99.90
52016;DHT22;38032;53.326;6.472;2023-05-08T08:50:30;21.50;99.00
52016;DHT22;38032;53.326;6.472;2023-05-08T08:53:09;21.70;99.00
52016;DHT22;38032;53.326;6.472;2023-05-08T08:55:39;21.80;98.70
52016;DHT22;38032;53.326;6.472;2023-05-08T08:58:13;21.90;97.90
52016;DHT22;38032;53.326;6.472;2023-05-08T09:00:40;22.10;97.00
52016;DHT22;38032;53.326;6.472;2023-05-08T09:03:06;22.30;96.30
52016;DHT22;38032;53.326;6.472;2023-05-08T09:05:33;22.60;94.30
52016;DHT22;38032;53.326;6.472;2023-05-08T09:07:59;22.90;93.30
52016;DHT22;38032;53.326;6.472;2023-05-08T09:10:25;23.50;99.90
52016;DHT22;38032;53.326;6.472;2023-05-08T09:12:51;23.60;91.30
52016;DHT22;38032;53.326;6.472;2023-05-08T09:15:17;24.30;85.70
52016;DHT22;38032;53.326;6.472;2023-05-08T09:17:43;24.50;81.10
52016;DHT22;38032;53.326;6.472;2023-05-08T09:20:10;24.50;79.40
52016;DHT22;38032;53.326;6.472;2023-05-08T09:22:38;24.30;78.90
52016;DHT22;38032;53.326;6.472;2023-05-08T09:25:05;24.10;79.50
52016;DHT22;38032;53.326;6.472;2023-05-08T09:27:31;23.90;82.40
52016;DHT22;38032;53.326;6.472;2023-05-08T09:30:05;23.60;83.90
52016;DHT22;38032;53.326;6.472;2023-05-08T09:32:32;23.40;83.30
52016;DHT22;38032;53.326;6.472;2023-05-08T09:34:59;23.30;83.10
52016;DHT22;38032;53.326;6.472;2023-05-08T09:37:26;23.10;83.90
52016;DHT22;38032;53.326;6.472;2023-05-08T09:39:53;23.00;86.20
52016;DHT22;38032;53.326;6.472;2023-05-08T09:42:19;23.10;88.40
52016;DHT22;38032;53.326;6.472;2023-05-08T09:47:16;23.70;88.20
52016;DHT22;38032;53.326;6.472;2023-05-08T09:50:01;24.00;84.90
52016;DHT22;38032;53.326;6.472;2023-05-08T09:52:28;24.30;84.60
52016;DHT22;38032;53.326;6.472;2023-05-08T09:54:57;25.20;81.00
52016;DHT22;38032;53.326;6.472;2023-05-08T09:57:25;25.90;93.20
52016;DHT22;38032;53.326;6.472;2023-05-08T10:00:00;25.80;77.60
52016;DHT22;38032;53.326;6.472;2023-05-08T10:02:26;26.00;77.80
52016;DHT22;38032;53.326;6.472;2023-05-08T10:04:53;26.00;74.90
52016;DHT22;38032;53.326;6.472;2023-05-08T10:07:33;26.00;74.70
52016;DHT22;38032;53.326;6.472;2023-05-08T10:10:02;26.10;74.20
52016;DHT22;38032;53.326;6.472;2023-05-08T10:12:29;26.40;73.20
52016;DHT22;38032;53.326;6.472;2023-05-08T10:14:55;26.80;72.70
52016;DHT22;38032;53.326;6.472;2023-05-08T10:17:30;26.90;70.60
52016;DHT22;38032;53.326;6.472;2023-05-08T10:19:58;27.10;69.50
52016;DHT22;38032;53.326;6.472;2023-05-08T10:22:27;27.30;70.30
52016;DHT22;38032;53.326;6.472;2023-05-08T10:24:56;27.50;69.00
52016;DHT22;38032;53.326;6.472;2023-05-08T10:27:31;28.00;68.60
52016;DHT22;38032;53.326;6.472;2023-05-08T10:30:02;28.60;68.80
52016;DHT22;38032;53.326;6.472;2023-05-08T10:32:36;29.10;66.80
52016;DHT22;38032;53.326;6.472;2023-05-08T10:35:08;29.50;64.50
52016;DHT22;38032;53.326;6.472;2023-05-08T10:37:36;29.80;64.80
52016;DHT22;38032;53.326;6.472;2023-05-08T10:40:03;30.00;65.20
52016;DHT22;38032;53.326;6.472;2023-05-08T10:42:30;30.20;63.30
52016;DHT22;38032;53.326;6.472;2023-05-08T10:44:58;30.40;61.60
52016;DHT22;38032;53.326;6.472;2023-05-08T10:47:41;30.50;62.10
52016;DHT22;38032;53.326;6.472;2023-05-08T10:50:17;30.50;60.90
52016;DHT22;38032;53.326;6.472;2023-05-08T10:52:58;30.50;61.40
52016;DHT22;38032;53.326;6.472;2023-05-08T10:55:29;30.50;60.00
52016;DHT22;38032;53.326;6.472;2023-05-08T10:58:10;30.50;60.20
52016;DHT22;38032;53.326;6.472;2023-05-08T11:03:18;30.40;60.00
52016;DHT22;38032;53.326;6.472;2023-05-08T11:05:48;30.30;59.40
52016;DHT22;38032;53.326;6.472;2023-05-08T11:08:17;30.20;59.50
52016;DHT22;38032;53.326;6.472;2023-05-08T11:13:28;29.80;61.00
52016;DHT22;38032;53.326;6.472;2023-05-08T11:15:56;29.80;61.30
52016;DHT22;38032;53.326;6.472;2023-05-08T11:21:00;29.50;61.20
52016;DHT22;38032;53.326;6.472;2023-05-08T11:23:29;29.50;60.50
52016;DHT22;38032;53.326;6.472;2023-05-08T11:26:13;29.40;60.70
52016;DHT22;38032;53.326;6.472;2023-05-08T11:28:56;29.20;60.90
52016;DHT22;38032;53.326;6.472;2023-05-08T11:31:22;29.00;60.60
52016;DHT22;38032;53.326;6.472;2023-05-08T11:33:48;28.90;62.60
52016;DHT22;38032;53.326;6.472;2023-05-08T11:36:16;28.80;62.50
52016;DHT22;38032;53.326;6.472;2023-05-08T11:39:05;28.70;61.90
52016;DHT22;38032;53.326;6.472;2023-05-08T11:41:33;28.50;61.80
52016;DHT22;38032;53.326;6.472;2023-05-08T11:46:39;28.20;63.70
52016;DHT22;38032;53.326;6.472;2023-05-08T11:49:13;27.90;63.90
52016;DHT22;38032;53.326;6.472;2023-05-08T11:51:42;27.70;63.50
52016;DHT22;38032;53.326;6.472;2023-05-08T11:54:13;27.50;64.90
52016;DHT22;38032;53.326;6.472;2023-05-08T11:56:39;27.40;64.20
52016;DHT22;38032;53.326;6.472;2023-05-08T11:59:06;27.20;64.40
52016;DHT22;38032;53.326;6.472;2023-05-08T12:01:33;27.00;64.00
52016;DHT22;38032;53.326;6.472;2023-05-08T12:04:01;26.90;64.40
52016;DHT22;38032;53.326;6.472;2023-05-08T12:06:27;26.70;66.20
52016;DHT22;38032;53.326;6.472;2023-05-08T12:08:53;26.70;66.30
52016;DHT22;38032;53.326;6.472;2023-05-08T12:11:23;26.60;67.00
52016;DHT22;38032;53.326;6.472;2023-05-08T12:13:51;26.60;67.10
52016;DHT22;38032;53.326;6.472;2023-05-08T12:16:17;26.50;66.40
52016;DHT22;38032;53.326;6.472;2023-05-08T12:18:43;26.50;67.70
52016;DHT22;38032;53.326;6.472;2023-05-08T12:21:10;26.50;67.40
52016;DHT22;38032;53.326;6.472;2023-05-08T12:23:37;26.40;67.30
52016;DHT22;38032;53.326;6.472;2023-05-08T12:26:03;26.30;67.70
52016;DHT22;38032;53.326;6.472;2023-05-08T12:28:29;26.30;68.60
52016;DHT22;38032;53.326;6.472;2023-05-08T12:31:01;26.20;69.20
52016;DHT22;38032;53.326;6.472;2023-05-08T12:33:27;26.30;69.40
52016;DHT22;38032;53.326;6.472;2023-05-08T12:35:56;26.30;70.40
52016;DHT22;38032;53.326;6.472;2023-05-08T12:38:26;26.30;69.70
52016;DHT22;38032;53.326;6.472;2023-05-08T12:40:52;26.30;71.20
52016;DHT22;38032;53.326;6.472;2023-05-08T12:43:20;26.30;71.10
52016;DHT22;38032;53.326;6.472;2023-05-08T12:45:49;26.20;70.70
52016;DHT22;38032;53.326;6.472;2023-05-08T12:48:17;26.20;70.10
52016;DHT22;38032;53.326;6.472;2023-05-08T12:50:44;26.20;69.80
52016;DHT22;38032;53.326;6.472;2023-05-08T12:53:13;26.10;69.20
52016;DHT22;38032;53.326;6.472;2023-05-08T12:55:48;26.10;68.70
52016;DHT22;38032;53.326;6.472;2023-05-08T12:58:17;26.10;70.70
52016;DHT22;38032;53.326;6.472;2023-05-08T13:00:48;26.10;71.40
52016;DHT22;38032;53.326;6.472;2023-05-08T13:03:25;26.20;72.60
52016;DHT22;38032;53.326;6.472;2023-05-08T13:05:52;26.20;72.20
52016;DHT22;38032;53.326;6.472;2023-05-08T13:08:18;26.20;70.80
52016;DHT22;38032;53.326;6.472;2023-05-08T13:10:45;26.20;71.00
52016;DHT22;38032;53.326;6.472;2023-05-08T13:13:12;26.30;70.50
52016;DHT22;38032;53.326;6.472;2023-05-08T13:15:38;26.30;71.00
52016;DHT22;38032;53.326;6.472;2023-05-08T13:18:04;26.30;70.30
52016;DHT22;38032;53.326;6.472;2023-05-08T13:20:33;26.30;73.20
52016;DHT22;38032;53.326;6.472;2023-05-08T13:22:58;26.30;72.30
52016;DHT22;38032;53.326;6.472;2023-05-08T13:25:24;26.30;72.90
52016;DHT22;38032;53.326;6.472;2023-05-08T13:27:50;26.20;73.00
52016;DHT22;38032;53.326;6.472;2023-05-08T13:30:16;26.10;72.10
52016;DHT22;38032;53.326;6.472;2023-05-08T13:32:42;26.10;73.40
52016;DHT22;38032;53.326;6.472;2023-05-08T13:35:08;26.20;73.10
52016;DHT22;38032;53.326;6.472;2023-05-08T13:37:34;26.10;74.20
52016;DHT22;38032;53.326;6.472;2023-05-08T13:40:00;26.10;74.30
52016;DHT22;38032;53.326;6.472;2023-05-08T13:42:26;26.00;73.50
52016;DHT22;38032;53.326;6.472;2023-05-08T13:44:52;25.90;73.10
52016;DHT22;38032;53.326;6.472;2023-05-08T13:47:18;25.80;73.00
52016;DHT22;38032;53.326;6.472;2023-05-08T13:49:44;25.70;73.30
52016;DHT22;38032;53.326;6.472;2023-05-08T13:52:11;25.50;74.20
52016;DHT22;38032;53.326;6.472;2023-05-08T13:54:37;25.50;74.70
52016;DHT22;38032;53.326;6.472;2023-05-08T13:57:03;25.60;76.10
52016;DHT22;38032;53.326;6.472;2023-05-08T13:59:29;25.50;75.40
52016;DHT22;38032;53.326;6.472;2023-05-08T14:01:55;25.40;75.70
52016;DHT22;38032;53.326;6.472;2023-05-08T14:04:21;25.40;75.20
52016;DHT22;38032;53.326;6.472;2023-05-08T14:06:48;25.40;76.00
52016;DHT22;38032;53.326;6.472;2023-05-08T14:09:14;25.40;75.20
52016;DHT22;38032;53.326;6.472;2023-05-08T14:11:40;25.40;74.80
52016;DHT22;38032;53.326;6.472;2023-05-08T14:14:06;25.50;75.60
52016;DHT22;38032;53.326;6.472;2023-05-08T14:16:32;25.50;77.80
52016;DHT22;38032;53.326;6.472;2023-05-08T14:18:58;25.50;76.40
52016;DHT22;38032;53.326;6.472;2023-05-08T14:21:24;25.50;76.80
52016;DHT22;38032;53.326;6.472;2023-05-08T14:23:50;25.50;77.20
52016;DHT22;38032;53.326;6.472;2023-05-08T14:26:16;25.50;78.00
52016;DHT22;38032;53.326;6.472;2023-05-08T14:28:42;25.50;79.30
52016;DHT22;38032;53.326;6.472;2023-05-08T14:31:07;25.40;80.50
52016;DHT22;38032;53.326;6.472;2023-05-08T14:33:33;25.40;80.20
52016;DHT22;38032;53.326;6.472;2023-05-08T14:35:59;25.30;81.30
52016;DHT22;38032;53.326;6.472;2023-05-08T14:38:25;25.20;83.60
52016;DHT22;38032;53.326;6.472;2023-05-08T14:40:51;25.10;85.30
52016;DHT22;38032;53.326;6.472;2023-05-08T14:43:19;25.00;84.30
52016;DHT22;38032;53.326;6.472;2023-05-08T14:45:45;24.90;92.00
52016;DHT22;38032;53.326;6.472;2023-05-08T14:48:11;25.10;93.10
52016;DHT22;38032;53.326;6.472;2023-05-08T14:50:37;24.90;94.40
52016;DHT22;38032;53.326;6.472;2023-05-08T14:53:03;24.90;90.40
52016;DHT22;38032;53.326;6.472;2023-05-08T14:55:29;24.90;89.40
52016;DHT22;38032;53.326;6.472;2023-05-08T14:57:55;24.90;89.70
52016;DHT22;38032;53.326;6.472;2023-05-08T15:00:21;24.90;88.80
52016;DHT22;38032;53.326;6.472;2023-05-08T15:02:47;24.90;85.10
52016;DHT22;38032;53.326;6.472;2023-05-08T15:05:13;24.90;83.60
52016;DHT22;38032;53.326;6.472;2023-05-08T15:07:39;25.00;81.70
52016;DHT22;38032;53.326;6.472;2023-05-08T15:10:05;25.00;80.50
52016;DHT22;38032;53.326;6.472;2023-05-08T15:12:31;25.00;79.40
52016;DHT22;38032;53.326;6.472;2023-05-08T15:14:58;24.90;78.30
52016;DHT22;38032;53.326;6.472;2023-05-08T15:17:24;24.90;81.30
52016;DHT22;38032;53.326;6.472;2023-05-08T15:19:50;24.80;81.70
52016;DHT22;38032;53.326;6.472;2023-05-08T15:22:16;24.80;81.40
52016;DHT22;38032;53.326;6.472;2023-05-08T15:24:42;24.70;82.40
52016;DHT22;38032;53.326;6.472;2023-05-08T15:27:08;24.60;82.70
52016;DHT22;38032;53.326;6.472;2023-05-08T15:29:35;24.50;83.40
52016;DHT22;38032;53.326;6.472;2023-05-08T15:32:01;24.40;85.80
52016;DHT22;38032;53.326;6.472;2023-05-08T15:34:27;24.40;87.70
52016;DHT22;38032;53.326;6.472;2023-05-08T15:36:53;24.20;91.40
52016;DHT22;38032;53.326;6.472;2023-05-08T15:39:18;24.20;93.20
52016;DHT22;38032;53.326;6.472;2023-05-08T15:41:44;24.20;92.40
52016;DHT22;38032;53.326;6.472;2023-05-08T15:44:10;24.10;93.20
52016;DHT22;38032;53.326;6.472;2023-05-08T15:46:38;24.10;94.20
52016;DHT22;38032;53.326;6.472;2023-05-08T15:49:04;24.10;94.10
52016;DHT22;38032;53.326;6.472;2023-05-08T15:51:30;24.10;93.80
52016;DHT22;38032;53.326;6.472;2023-05-08T15:53:56;24.00;93.70
52016;DHT22;38032;53.326;6.472;2023-05-08T15:56:22;24.00;94.20
52016;DHT22;38032;53.326;6.472;2023-05-08T15:58:51;24.00;95.20
52016;DHT22;38032;53.326;6.472;2023-05-08T16:01:17;23.90;96.10
52016;DHT22;38032;53.326;6.472;2023-05-08T16:03:44;23.90;97.40
52016;DHT22;38032;53.326;6.472;2023-05-08T16:06:10;23.70;98.20
52016;DHT22;38032;53.326;6.472;2023-05-08T16:08:36;23.70;98.70
52016;DHT22;38032;53.326;6.472;2023-05-08T16:11:02;23.50;99.30
52016;DHT22;38032;53.326;6.472;2023-05-08T16:13:28;23.50;99.90